Time;durP1;ratioP1;P1;durP2;ratioP2;P2;SDS_P1;SDS_P2;PMS_P1;PMS_P2;Temp;Humidity;BMP_temperature;BMP_pressure;BME280_temperature;BME280_humidity;BME280_pressure;Samples;Min_cycle;Max_cycle;Signal;HPM_P1;HPM_P2
2022/09/26 00:01:22;;;;;;;4.25;1.33;;;;;;;;;;6279388;22;20058;-85
2022/09/26 00:06:46;;;;;;;7.90;1.52;;;;;;;;;;6330959;22;20072;-85
2022/09/26 00:09:13;;;;;;;8.68;1.30;;;;;;;;;;6278673;22;20027;-85
2022/09/26 00:11:39;;;;;;;2.90;1.20;;;;;;;;;;6279422;22;20019;-86
2022/09/26 00:14:07;;;;;;;9.75;1.70;;;;;;;;;;6302801;22;20514;-85
2022/09/26 00:19:08;;;;;;;7.68;1.73;;;;;;;;;;6325080;22;20049;-85
2022/09/26 00:21:34;;;;;;;5.55;1.42;;;;;;;;;;6274917;22;20022;-86
2022/09/26 00:24:13;;;;;;;5.63;1.13;;;;;;;;;;6278817;22;20119;-88
2022/09/26 00:26:39;;;;;;;4.85;1.90;;;;;;;;;;6274799;22;20067;-85
2022/09/26 00:29:07;;;;;;;3.92;1.15;;;;;;;;;;6279275;22;20053;-86
2022/09/26 00:31:38;;;;;;;3.75;1.27;;;;;;;;;;6290377;22;20356;-87
2022/09/26 00:34:04;;;;;;;4.68;1.58;;;;;;;;;;6271396;22;20038;-86
2022/09/26 00:36:31;;;;;;;6.15;1.20;;;;;;;;;;6249028;22;20031;-86
2022/09/26 00:38:57;;;;;;;3.58;1.38;;;;;;;;;;6246857;22;20054;-82
2022/09/26 00:41:23;;;;;;;3.47;1.40;;;;;;;;;;6274357;22;20052;-86
2022/09/26 00:43:51;;;;;;;9.27;1.67;;;;;;;;;;6269757;22;20435;-85
2022/09/26 00:46:29;;;;;;;2.95;1.50;;;;;;;;;;6270827;22;20051;-86
2022/09/26 00:49:14;;;;;;;5.75;1.65;;;;;;;;;;6244835;22;20033;-85
2022/09/26 00:51:41;;;;;;;6.80;2.08;;;;;;;;;;6244410;22;20030;-84
2022/09/26 00:54:13;;;;;;;3.30;1.45;;;;;;;;;;6246493;22;20027;-85
2022/09/26 00:56:41;;;;;;;5.93;1.75;;;;;;;;;;6269492;22;20042;-87
2022/09/26 00:59:10;;;;;;;4.80;1.80;;;;;;;;;;6272060;22;20011;-85
2022/09/26 01:01:36;;;;;;;6.55;2.05;;;;;;;;;;6269621;22;20015;-86
2022/09/26 01:04:03;;;;;;;4.43;1.70;;;;;;;;;;6270412;22;20456;-85
2022/09/26 01:06:30;;;;;;;4.43;1.90;;;;;;;;;;6244493;22;20015;-85
2022/09/26 01:09:07;;;;;;;2.83;1.70;;;;;;;;;;6245895;22;20053;-87
2022/09/26 01:11:52;;;;;;;4.32;1.95;;;;;;;;;;6312900;22;20045;-85
2022/09/26 01:14:20;;;;;;;7.68;2.53;;;;;;;;;;6265389;22;20074;-86
2022/09/26 01:16:49;;;;;;;5.93;1.75;;;;;;;;;;6240791;22;20015;-86
2022/09/26 01:19:25;;;;;;;5.40;2.20;;;;;;;;;;6248076;22;20023;-85
2022/09/26 01:22:12;;;;;;;8.43;2.20;;;;;;;;;;6246396;22;20015;-86
2022/09/26 01:25:11;;;;;;;6.18;2.08;;;;;;;;;;6273058;22;20022;-85
2022/09/26 01:27:46;;;;;;;6.38;2.20;;;;;;;;;;6146836;23;20390;-86
2022/09/26 01:30:12;;;;;;;4.18;2.30;;;;;;;;;;6148335;22;20407;-85
2022/09/26 01:32:48;;;;;;;12.20;2.50;;;;;;;;;;6264874;22;20015;-86
2022/09/26 01:35:17;;;;;;;5.30;2.25;;;;;;;;;;6213752;22;20030;-86
2022/09/26 01:37:49;;;;;;;5.70;1.90;;;;;;;;;;6215128;22;20019;-86
2022/09/26 01:40:36;;;;;;;4.80;1.85;;;;;;;;;;6216089;22;20047;-87
2022/09/26 01:43:02;;;;;;;4.13;1.95;;;;;;;;;;6240696;22;20058;-85
2022/09/26 01:45:47;;;;;;;4.95;2.10;;;;;;;;;;6209247;22;20016;-86
2022/09/26 01:48:17;;;;;;;6.38;2.17;;;;;;;;;;6184765;23;20114;-86
2022/09/26 01:50:54;;;;;;;7.15;2.00;;;;;;;;;;6189560;23;20027;-86
2022/09/26 01:53:23;;;;;;;6.35;1.90;;;;;;;;;;6240727;23;20483;-86
2022/09/26 01:55:56;;;;;;;4.38;2.00;;;;;;;;;;6254289;22;20026;-87
2022/09/26 01:58:28;;;;;;;6.57;2.20;;;;;;;;;;6275093;22;20019;-85
2022/09/26 02:03:55;;;;;;;5.50;2.15;;;;;;;;;;6298843;22;20602;-86
2022/09/26 02:06:30;;;;;;;7.78;2.35;;;;;;;;;;6269393;22;20614;-86
2022/09/26 02:09:02;;;;;;;5.57;2.10;;;;;;;;;;6242774;22;20030;-85
2022/09/26 02:11:28;;;;;;;5.35;2.10;;;;;;;;;;6245378;22;20022;-86
2022/09/26 02:14:03;;;;;;;11.32;2.92;;;;;;;;;;6242350;22;20043;-84
2022/09/26 02:16:29;;;;;;;5.30;2.70;;;;;;;;;;6299253;22;20058;-85
2022/09/26 02:19:09;;;;;;;6.78;2.30;;;;;;;;;;6242908;22;20017;-84
2022/09/26 02:21:35;;;;;;;7.22;2.20;;;;;;;;;;6268833;22;20033;-87
2022/09/26 02:24:01;;;;;;;6.57;2.38;;;;;;;;;;6268488;22;20408;-86
2022/09/26 02:26:28;;;;;;;7.43;2.45;;;;;;;;;;6295097;22;20090;-86
2022/09/26 02:28:55;;;;;;;6.38;2.90;;;;;;;;;;6267927;22;20020;-86
2022/09/26 02:31:24;;;;;;;6.22;2.78;;;;;;;;;;6240861;22;20562;-86
2022/09/26 02:33:51;;;;;;;7.22;3.00;;;;;;;;;;6243179;22;20086;-87
2022/09/26 02:36:18;;;;;;;8.02;2.78;;;;;;;;;;6266021;22;20026;-86
2022/09/26 02:38:44;;;;;;;8.60;3.05;;;;;;;;;;6241836;22;20022;-87
2022/09/26 02:41:17;;;;;;;6.38;2.90;;;;;;;;;;6241108;22;20077;-84
2022/09/26 02:43:49;;;;;;;7.78;3.20;;;;;;;;;;6266658;22;20023;-83
2022/09/26 02:46:37;;;;;;;6.95;3.53;;;;;;;;;;6267943;22;20023;-84
2022/09/26 02:49:14;;;;;;;4.13;2.67;;;;;;;;;;6241754;22;20019;-85
2022/09/26 02:51:48;;;;;;;10.52;3.28;;;;;;;;;;6246522;22;20019;-84
2022/09/26 02:54:53;;;;;;;6.63;3.00;;;;;;;;;;6273126;22;20023;-84
2022/09/26 02:57:50;;;;;;;10.18;4.05;;;;;;;;;;6169951;23;20471;-85
2022/09/26 03:00:18;;;;;;;7.82;3.42;;;;;;;;;;6172530;23;20101;-86
2022/09/26 03:02:50;;;;;;;8.57;3.95;;;;;;;;;;6234157;22;20050;-85
2022/09/26 03:05:27;;;;;;;10.23;3.90;;;;;;;;;;6295250;22;20047;-85
2022/09/26 03:07:58;;;;;;;9.85;4.03;;;;;;;;;;6268956;22;20027;-84
2022/09/26 03:10:26;;;;;;;13.73;4.97;;;;;;;;;;6300073;22;20019;-84
2022/09/26 03:12:52;;;;;;;9.15;4.10;;;;;;;;;;6242607;22;20042;-85
2022/09/26 03:15:32;;;;;;;6.28;3.90;;;;;;;;;;6240763;22;20570;-85
2022/09/26 03:17:58;;;;;;;7.97;3.92;;;;;;;;;;6296385;22;20403;-84
2022/09/26 03:20:25;;;;;;;10.25;4.18;;;;;;;;;;6244850;22;20051;-86
2022/09/26 03:22:51;;;;;;;7.40;4.70;;;;;;;;;;6295349;22;20023;-85
2022/09/26 03:25:25;;;;;;;9.30;4.57;;;;;;;;;;6246844;22;20455;-84
2022/09/26 03:27:51;;;;;;;;;;;;;;;;;;6246532;22;20042;-83
2022/09/26 03:30:17;;;;;;;9.07;4.07;;;;;;;;;;6299012;22;19961;-85
2022/09/26 03:32:47;;;;;;;9.63;3.78;;;;;;;;;;6274159;22;20027;-85
2022/09/26 03:35:13;;;;;;;9.20;4.13;;;;;;;;;;6248362;22;20015;-85
2022/09/26 03:37:40;;;;;;;12.18;4.68;;;;;;;;;;6252915;22;20019;-84
2022/09/26 03:40:09;;;;;;;10.95;4.50;;;;;;;;;;6287175;22;20066;-84
2022/09/26 03:42:36;;;;;;;10.50;4.78;;;;;;;;;;6316180;22;20023;-84
2022/09/26 03:45:05;;;;;;;12.43;5.20;;;;;;;;;;6279450;22;20409;-83
2022/09/26 03:47:31;;;;;;;9.63;5.18;;;;;;;;;;6271766;22;20019;-82
2022/09/26 03:49:57;;;;;;;12.43;5.38;;;;;;;;;;6272894;22;20322;-83
2022/09/26 03:52:23;;;;;;;9.32;4.43;;;;;;;;;;6300149;22;20020;-83
2022/09/26 03:55:02;;;;;;;10.32;5.97;;;;;;;;;;6300594;22;20015;-84
2022/09/26 03:57:28;;;;;;;13.57;5.95;;;;;;;;;;6222475;22;20090;-85
2022/09/26 03:59:54;;;;;;;10.95;5.47;;;;;;;;;;6271958;22;20019;-84
2022/09/26 04:02:21;;;;;;;14.57;5.88;;;;;;;;;;6275007;22;20029;-86
2022/09/26 04:04:47;;;;;;;10.60;6.22;;;;;;;;;;6242394;22;20019;-86
2022/09/26 04:07:16;;;;;;;10.95;6.28;;;;;;;;;;6244226;22;20019;-86
2022/09/26 04:15:54;;;;;;;8.65;6.10;;;;;;;;;;6269490;22;20019;-85
2022/09/26 04:18:20;;;;;;;11.65;6.88;;;;;;;;;;6269452;22;20462;-86
2022/09/26 04:20:47;;;;;;;11.30;7.03;;;;;;;;;;6270964;22;20026;-85
2022/09/26 04:23:13;;;;;;;8.63;6.40;;;;;;;;;;6240200;22;20073;-85
2022/09/26 04:25:39;;;;;;;13.95;6.95;;;;;;;;;;6268851;22;20058;-86
2022/09/26 04:28:05;;;;;;;12.32;6.32;;;;;;;;;;6239523;22;20343;-85
2022/09/26 04:30:31;;;;;;;15.55;6.90;;;;;;;;;;6243637;22;20020;-84
2022/09/26 04:33:11;;;;;;;10.00;6.45;;;;;;;;;;6293583;22;20047;-84
2022/09/26 04:35:37;;;;;;;13.57;6.93;;;;;;;;;;6243068;22;20027;-86
2022/09/26 04:38:03;;;;;;;9.70;6.45;;;;;;;;;;6244316;22;20770;-84
2022/09/26 04:40:30;;;;;;;10.30;7.43;;;;;;;;;;6295769;22;20015;-86
2022/09/26 04:43:00;;;;;;;9.73;6.53;;;;;;;;;;6248736;22;20015;-86
2022/09/26 04:45:26;;;;;;;12.85;8.07;;;;;;;;;;6268309;22;20102;-83
2022/09/26 04:47:52;;;;;;;16.15;7.72;;;;;;;;;;6270208;22;20073;-83
2022/09/26 04:50:19;;;;;;;13.18;8.02;;;;;;;;;;6270525;22;20502;-83
2022/09/26 04:52:45;;;;;;;9.85;7.15;;;;;;;;;;6300076;22;20015;-86
2022/09/26 04:55:12;;;;;;;10.98;7.53;;;;;;;;;;6242913;22;20022;-85
2022/09/26 04:57:38;;;;;;;12.55;6.60;;;;;;;;;;6221066;22;20102;-85
2022/09/26 05:00:06;;;;;;;12.60;7.13;;;;;;;;;;6267933;22;20138;-85
2022/09/26 05:05:59;;;;;;;12.30;7.40;;;;;;;;;;6295590;22;20019;-85
2022/09/26 05:08:26;;;;;;;10.85;6.72;;;;;;;;;;6220021;22;20034;-85
2022/09/26 05:10:56;;;;;;;14.45;5.55;;;;;;;;;;6300590;22;20016;-84
2022/09/26 05:13:23;;;;;;;10.27;5.97;;;;;;;;;;6298154;22;20030;-85
2022/09/26 05:15:53;;;;;;;11.23;6.75;;;;;;;;;;6245869;22;20066;-85
2022/09/26 05:18:19;;;;;;;11.63;7.18;;;;;;;;;;6297602;22;20613;-84
2022/09/26 05:20:47;;;;;;;11.57;6.80;;;;;;;;;;6242715;22;20019;-84
2022/09/26 05:26:18;;;;;;;10.70;6.65;;;;;;;;;;6294902;22;20096;-85
2022/09/26 05:26:19;;;;;;;11.93;6.07;;;;;;;;;;6272985;22;20023;-86
2022/09/26 05:28:53;;;;;;;11.30;6.97;;;;;;;;;;6247384;22;20023;-86
2022/09/26 05:31:19;;;;;;;13.13;7.82;;;;;;;;;;6272935;22;20096;-86
2022/09/26 05:36:29;;;;;;;9.85;7.30;;;;;;;;;;6302777;22;20022;-86
2022/09/26 05:38:55;;;;;;;13.68;8.10;;;;;;;;;;6271247;22;20127;-84
2022/09/26 05:41:22;;;;;;;12.82;8.32;;;;;;;;;;6305028;22;20061;-84
2022/09/26 05:43:51;;;;;;;11.65;7.32;;;;;;;;;;6296575;22;20023;-86
2022/09/26 05:48:48;;;;;;;12.68;8.07;;;;;;;;;;6311706;22;20061;-86
2022/09/26 05:51:15;;;;;;;13.50;8.88;;;;;;;;;;6236214;22;20067;-86
2022/09/26 05:56:45;;;;;;;12.70;8.73;;;;;;;;;;6306267;22;20020;-84
2022/09/26 05:59:18;;;;;;;12.68;9.05;;;;;;;;;;6277580;22;20015;-86
2022/09/26 06:01:45;;;;;;;11.60;8.02;;;;;;;;;;6274233;22;20054;-86
2022/09/26 06:04:11;;;;;;;15.02;9.18;;;;;;;;;;6228921;22;20471;-85
2022/09/26 06:06:37;;;;;;;15.13;9.32;;;;;;;;;;6257161;22;20083;-83
2022/09/26 06:09:05;;;;;;;11.57;8.35;;;;;;;;;;6254276;22;20074;-84
2022/09/26 06:11:32;;;;;;;13.02;7.80;;;;;;;;;;6301789;22;20019;-83
2022/09/26 06:14:01;;;;;;;12.13;6.75;;;;;;;;;;6217783;22;20019;-84
2022/09/26 06:16:31;;;;;;;11.45;6.75;;;;;;;;;;6270041;22;20011;-83
2022/09/26 06:18:57;;;;;;;13.23;6.85;;;;;;;;;;6240739;22;20456;-83
2022/09/26 06:21:23;;;;;;;12.30;8.55;;;;;;;;;;6296341;22;20019;-83
2022/09/26 06:23:50;;;;;;;13.18;8.77;;;;;;;;;;6240336;22;20043;-85
2022/09/26 06:26:20;;;;;;;17.75;10.13;;;;;;;;;;6241753;22;20027;-84
2022/09/26 06:28:46;;;;;;;12.15;8.40;;;;;;;;;;6291995;22;20523;-84
2022/09/26 06:31:13;;;;;;;13.82;8.80;;;;;;;;;;6243821;22;20098;-85
2022/09/26 06:33:40;;;;;;;13.07;7.20;;;;;;;;;;6296923;22;20042;-84
2022/09/26 06:36:07;;;;;;;13.75;8.57;;;;;;;;;;6268450;22;20098;-83
2022/09/26 06:41:06;;;;;;;13.60;8.63;;;;;;;;;;6325802;22;20029;-82
2022/09/26 06:43:32;;;;;;;15.45;8.80;;;;;;;;;;6275505;22;20018;-84
2022/09/26 06:45:58;;;;;;;12.18;7.68;;;;;;;;;;6250221;22;20019;-84
2022/09/26 06:48:25;;;;;;;12.07;8.27;;;;;;;;;;6274522;22;20324;-84
2022/09/26 06:51:05;;;;;;;13.35;8.82;;;;;;;;;;6274992;22;20270;-84
2022/09/26 06:53:34;;;;;;;13.50;8.90;;;;;;;;;;6275766;22;20099;-84
2022/09/26 06:56:00;;;;;;;10.57;7.78;;;;;;;;;;6301662;22;20015;-84
2022/09/26 06:58:27;;;;;;;15.48;8.77;;;;;;;;;;6332577;22;20011;-84
2022/09/26 07:00:53;;;;;;;11.68;7.97;;;;;;;;;;6302549;22;20014;-83
2022/09/26 07:03:19;;;;;;;11.55;7.90;;;;;;;;;;6331364;22;20019;-84
2022/09/26 07:05:45;;;;;;;13.38;8.30;;;;;;;;;;6328744;22;20022;-84
2022/09/26 07:08:12;;;;;;;17.67;8.80;;;;;;;;;;6327690;22;20023;-84
2022/09/26 07:10:38;;;;;;;15.20;8.70;;;;;;;;;;6299397;22;20427;-84
2022/09/26 07:13:09;;;;;;;11.15;7.18;;;;;;;;;;6267745;22;20015;-85
2022/09/26 07:15:49;;;;;;;12.27;7.57;;;;;;;;;;6285386;22;20058;-84
2022/09/26 07:18:35;;;;;;;13.55;8.50;;;;;;;;;;6270753;22;20414;-83
2022/09/26 07:21:03;;;;;;;13.27;7.65;;;;;;;;;;6297399;22;20037;-84
2022/09/26 07:23:30;;;;;;;12.15;8.27;;;;;;;;;;6286028;22;20019;-84
2022/09/26 07:25:56;;;;;;;13.65;8.40;;;;;;;;;;6296563;22;20054;-82
2022/09/26 07:28:23;;;;;;;17.45;9.57;;;;;;;;;;6297888;22;20717;-85
2022/09/26 07:30:49;;;;;;;14.38;8.32;;;;;;;;;;6289495;22;20026;-84
2022/09/26 07:33:15;;;;;;;10.27;7.47;;;;;;;;;;6299172;22;20031;-83
2022/09/26 07:35:43;;;;;;;12.48;9.20;;;;;;;;;;6288145;22;20412;-84
2022/09/26 07:38:11;;;;;;;17.30;8.60;;;;;;;;;;6272257;22;20068;-82
2022/09/26 07:40:54;;;;;;;15.00;7.93;;;;;;;;;;6299468;22;20389;-83
2022/09/26 07:43:20;;;;;;;10.15;6.15;;;;;;;;;;6297681;22;20087;-83
2022/09/26 07:51:16;;;;;;;11.20;7.97;;;;;;;;;;6296799;22;20015;-84
2022/09/26 07:53:42;;;;;;;11.02;7.20;;;;;;;;;;6298503;22;20023;-84
2022/09/26 07:56:11;;;;;;;13.75;7.43;;;;;;;;;;6297655;22;20023;-84
2022/09/26 07:58:39;;;;;;;13.18;7.55;;;;;;;;;;6288242;22;20073;-84
2022/09/26 08:01:10;;;;;;;9.55;6.38;;;;;;;;;;6297239;22;20054;-84
2022/09/26 08:04:13;;;;;;;8.50;5.80;;;;;;;;;;6299968;22;20098;-84
2022/09/26 08:06:39;;;;;;;11.52;6.80;;;;;;;;;;6300587;22;20016;-82
2022/09/26 08:09:06;;;;;;;14.85;7.03;;;;;;;;;;6298234;22;20023;-84
2022/09/26 08:11:32;;;;;;;8.30;6.47;;;;;;;;;;6271612;22;20019;-84
2022/09/26 08:13:59;;;;;;;13.20;6.97;;;;;;;;;;6299210;22;20022;-83
2022/09/26 08:16:25;;;;;;;7.68;6.20;;;;;;;;;;6300273;22;20023;-84
2022/09/26 08:18:52;;;;;;;10.05;6.20;;;;;;;;;;6301646;22;20018;-83
2022/09/26 08:21:18;;;;;;;8.07;5.45;;;;;;;;;;6305034;22;20023;-84
2022/09/26 08:23:45;;;;;;;10.40;6.28;;;;;;;;;;6273554;22;20015;-85
2022/09/26 08:26:12;;;;;;;8.73;5.05;;;;;;;;;;6301747;22;20015;-83
2022/09/26 08:28:38;;;;;;;11.18;5.95;;;;;;;;;;6305250;22;20356;-85
2022/09/26 08:31:07;;;;;;;9.65;5.72;;;;;;;;;;6309558;22;20080;-84
2022/09/26 08:33:40;;;;;;;7.32;5.15;;;;;;;;;;6314132;22;20015;-83
2022/09/26 08:36:13;;;;;;;12.65;5.85;;;;;;;;;;6270173;22;20016;-83
2022/09/26 08:38:39;;;;;;;14.07;5.82;;;;;;;;;;6300344;22;20011;-83
2022/09/26 08:41:23;;;;;;;8.45;5.05;;;;;;;;;;6272452;22;20026;-83
2022/09/26 08:43:52;;;;;;;8.05;4.60;;;;;;;;;;6245140;22;20030;-85
2022/09/26 08:46:49;;;;;;;6.75;4.50;;;;;;;;;;6297090;22;20023;-84
2022/09/26 08:49:20;;;;;;;9.07;5.10;;;;;;;;;;6269446;22;20073;-81
2022/09/26 08:51:49;;;;;;;8.85;4.88;;;;;;;;;;6245569;22;20027;-83
2022/09/26 08:54:15;;;;;;;10.95;4.72;;;;;;;;;;6271254;22;20019;-84
2022/09/26 08:57:02;;;;;;;4.65;4.00;;;;;;;;;;6299232;22;20037;-84
2022/09/26 08:59:33;;;;;;;7.53;4.18;;;;;;;;;;6245205;22;20019;-85
2022/09/26 09:02:01;;;;;;;8.43;4.95;;;;;;;;;;6243162;22;20020;-85
2022/09/26 09:08:34;;;;;;;10.63;3.80;;;;;;;;;;6350124;22;20030;-86
2022/09/26 09:11:01;;;;;;;3.95;3.25;;;;;;;;;;6326656;22;20148;-86
2022/09/26 09:13:27;;;;;;;8.13;3.63;;;;;;;;;;6335468;22;20114;-86
2022/09/26 09:16:05;;;;;;;6.45;4.25;;;;;;;;;;6355613;22;21251;-85
2022/09/26 09:18:47;;;;;;;8.25;4.47;;;;;;;;;;6302178;22;21080;-86
2022/09/26 09:21:21;;;;;;;5.97;3.72;;;;;;;;;;6331511;22;20022;-86
2022/09/26 09:24:12;;;;;;;8.57;4.47;;;;;;;;;;6302234;22;20015;-85
2022/09/26 09:26:44;;;;;;;7.80;4.55;;;;;;;;;;6304837;22;20026;-85
2022/09/26 09:29:45;;;;;;;7.05;4.70;;;;;;;;;;6278013;22;20023;-85
2022/09/26 09:32:14;;;;;;;6.03;4.32;;;;;;;;;;6334724;22;20014;-84
2022/09/26 09:34:42;;;;;;;6.47;4.03;;;;;;;;;;6289681;22;20014;-86
2022/09/26 09:37:12;;;;;;;7.18;5.45;;;;;;;;;;6350061;22;20015;-85
2022/09/26 09:39:40;;;;;;;8.18;5.63;;;;;;;;;;6293959;22;20011;-84
2022/09/26 09:42:18;;;;;;;9.35;5.40;;;;;;;;;;6342638;22;20014;-85
2022/09/26 09:44:48;;;;;;;9.60;5.15;;;;;;;;;;6308315;22;20023;-86
2022/09/26 09:47:15;;;;;;;11.20;5.93;;;;;;;;;;6331943;22;20021;-86
2022/09/26 09:49:42;;;;;;;11.25;5.38;;;;;;;;;;6277635;22;20015;-85
2022/09/26 09:52:27;;;;;;;9.68;6.22;;;;;;;;;;6278768;22;20034;-85
2022/09/26 09:54:58;;;;;;;9.65;5.25;;;;;;;;;;6301784;22;20392;-85
2022/09/26 10:01:08;;;;;;;6.53;5.25;;;;;;;;;;6330953;22;20056;-84
2022/09/26 10:03:38;;;;;;;12.18;5.65;;;;;;;;;;6277238;22;20023;-85
2022/09/26 10:12:57;;;;;;;7.70;5.05;;;;;;;;;;6332400;22;20021;-84
2022/09/26 10:15:27;;;;;;;9.90;5.80;;;;;;;;;;6254012;22;20092;-84
2022/09/26 10:18:24;;;;;;;10.60;6.10;;;;;;;;;;6304933;22;20019;-85
2022/09/26 10:20:56;;;;;;;14.30;6.15;;;;;;;;;;6332439;22;20026;-84
2022/09/26 10:26:38;;;;;;;12.73;6.32;;;;;;;;;;6303555;22;20102;-84
2022/09/26 10:29:21;;;;;;;8.35;5.15;;;;;;;;;;6332937;22;20030;-85
2022/09/26 10:31:54;;;;;;;10.63;6.60;;;;;;;;;;6331334;22;20026;-84
2022/09/26 10:34:26;;;;;;;12.70;7.28;;;;;;;;;;6333295;22;20083;-85
2022/09/26 10:36:53;;;;;;;12.05;6.60;;;;;;;;;;6334465;22;20098;-85
2022/09/26 10:46:02;;;;;;;10.38;6.35;;;;;;;;;;6334942;22;20148;-84
2022/09/26 10:55:04;;;;;;;11.02;6.82;;;;;;;;;;6213765;23;20536;-84
2022/09/26 10:57:48;;;;;;;8.27;5.32;;;;;;;;;;6218107;23;20028;-84
2022/09/26 11:00:36;;;;;;;10.90;6.53;;;;;;;;;;6212928;23;20118;-85
2022/09/26 11:03:06;;;;;;;9.77;6.05;;;;;;;;;;6209768;23;20024;-84
2022/09/26 11:09:01;;;;;;;11.82;6.65;;;;;;;;;;6210475;23;20032;-83
2022/09/26 11:11:30;;;;;;;13.02;7.10;;;;;;;;;;6208695;23;20394;-84
2022/09/26 11:14:02;;;;;;;9.07;5.13;;;;;;;;;;6208259;23;20016;-84
2022/09/26 11:16:28;;;;;;;8.18;5.75;;;;;;;;;;6207825;23;20028;-84
2022/09/26 11:19:05;;;;;;;7.50;6.13;;;;;;;;;;6206590;23;20020;-85
2022/09/26 11:24:03;;;;;;;9.32;5.30;;;;;;;;;;6300222;22;20525;-84
2022/09/26 11:26:35;;;;;;;12.93;8.10;;;;;;;;;;6243527;22;20027;-84
2022/09/26 11:29:17;;;;;;;12.60;8.32;;;;;;;;;;6245719;22;20019;-84
2022/09/26 11:31:43;;;;;;;12.27;7.45;;;;;;;;;;6272164;22;20023;-84
2022/09/26 11:34:21;;;;;;;15.02;9.35;;;;;;;;;;6269836;22;20011;-84
2022/09/26 11:40:33;;;;;;;10.18;9.13;;;;;;;;;;6361426;22;20478;-84
2022/09/26 11:43:14;;;;;;;9.80;8.13;;;;;;;;;;6308821;22;20468;-83
2022/09/26 11:45:51;;;;;;;15.60;9.82;;;;;;;;;;6308413;22;20063;-83
2022/09/26 11:48:32;;;;;;;14.25;9.88;;;;;;;;;;6333816;22;20029;-83
2022/09/26 11:54:18;;;;;;;11.70;8.90;;;;;;;;;;6360385;22;20022;-82
2022/09/26 11:56:50;;;;;;;10.40;8.10;;;;;;;;;;6362536;22;20408;-82
2022/09/26 11:59:26;;;;;;;13.23;8.05;;;;;;;;;;6362463;22;20021;-82
2022/09/26 12:02:14;;;;;;;13.40;8.98;;;;;;;;;;6362065;22;20900;-81
2022/09/26 12:05:01;;;;;;;9.60;8.02;;;;;;;;;;6309318;22;20010;-84
2022/09/26 12:07:51;;;;;;;11.23;7.60;;;;;;;;;;6306922;22;20030;-83
2022/09/26 12:10:38;;;;;;;11.45;7.85;;;;;;;;;;6309402;22;20032;-84
2022/09/26 12:13:14;;;;;;;8.55;6.28;;;;;;;;;;6313144;22;20022;-83
2022/09/26 12:16:05;;;;;;;12.82;8.70;;;;;;;;;;6360064;22;20060;-82
2022/09/26 12:18:37;;;;;;;9.75;7.80;;;;;;;;;;6302477;22;20018;-82
2022/09/26 12:23:49;;;;;;;8.18;6.72;;;;;;;;;;6360697;22;20053;-83
2022/09/26 12:26:20;;;;;;;9.43;6.45;;;;;;;;;;6362328;22;20451;-83
2022/09/26 12:29:09;;;;;;;7.38;6.50;;;;;;;;;;6362465;22;20018;-84
2022/09/26 12:31:54;;;;;;;10.00;6.63;;;;;;;;;;6290221;22;20101;-84
2022/09/26 12:34:30;;;;;;;6.95;6.25;;;;;;;;;;6360980;22;20069;-85
2022/09/26 12:37:06;;;;;;;6.75;5.80;;;;;;;;;;6334257;22;20026;-85
2022/09/26 12:39:34;;;;;;;8.02;6.88;;;;;;;;;;6362800;22;20015;-85
2022/09/26 12:42:13;;;;;;;11.32;7.25;;;;;;;;;;6361080;22;20010;-84
2022/09/26 12:44:57;;;;;;;9.18;7.13;;;12.00;99.90;;;;;;6360552;22;20022;-84
2022/09/26 12:47:23;;;;;;;8.50;6.75;;;;;;;;;;6300237;22;20019;-83
2022/09/26 12:50:14;;;;;;;7.35;6.47;;;;;;;;;;6301727;22;20080;-84
2022/09/26 12:52:57;;;;;;;7.07;5.95;;;;;;;;;;6271961;22;20134;-84
2022/09/26 12:55:26;;;;;;;5.93;5.30;;;;;;;;;;6276722;22;20085;-83
2022/09/26 12:58:02;;;;;;;7.60;5.35;;;;;;;;;;6301703;22;20019;-84
2022/09/26 13:00:35;;;;;;;5.57;4.60;;;;;;;;;;6302188;22;20343;-83
2022/09/26 13:03:18;;;;;;;4.43;4.03;;;;;;;;;;6274610;22;20069;-83
2022/09/26 13:05:47;;;;;;;5.22;4.72;;;;;;;;;;6303903;22;20647;-85
2022/09/26 13:08:14;;;;;;;5.90;4.78;;;;;;;;;;6307122;22;20019;-84
2022/09/26 13:10:40;;;;;;;8.07;5.30;;;;;;;;;;6280232;22;20027;-83
2022/09/26 13:13:32;;;;;;;5.30;4.80;;;;;;;;;;6284574;22;20017;-84
2022/09/26 13:16:04;;;;;;;6.03;5.43;;;;;;;;;;6282311;22;20102;-83
2022/09/26 13:18:47;;;;;;;5.82;5.18;;;;;;;;;;6343864;22;20026;-84
2022/09/26 13:21:17;;;;;;;5.25;4.28;;;;;;;;;;6316649;22;20022;-83
2022/09/26 13:27:11;;;;;;;4.30;3.90;;;;;;;;;;6338218;22;20031;-85
2022/09/26 13:32:52;;;;;;;5.33;3.30;;;;;;;;;;6301564;22;20091;-83
2022/09/26 13:35:25;;;;;;;5.65;3.67;;;;;;;;;;6329588;22;20595;-84
2022/09/26 13:38:13;;;;;;;5.53;3.90;;;;;;;;;;6328649;22;20022;-83
2022/09/26 13:40:57;;;;;;;4.47;4.07;;;;;;;;;;6303724;22;20014;-82
2022/09/26 13:43:29;;;;;;;3.58;2.85;;;;;;;;;;6287131;22;20064;-82
2022/09/26 13:46:11;;;;;;;3.45;2.67;;;;;;;;;;6280340;22;20019;-82
2022/09/26 13:48:45;;;;;;;3.55;3.25;;;;;;;;;;6332217;22;20019;-83
2022/09/26 13:51:17;;;;;;;4.38;3.25;;;;;;;;;;6328443;22;20516;-84
2022/09/26 13:53:58;;;;;;;4.05;3.63;;;;;;;;;;6300242;22;20023;-85
2022/09/26 13:56:30;;;;;;;4.90;3.50;;;;;;;;;;6301592;22;20026;-85
2022/09/26 13:59:16;;;;;;;2.70;2.50;;;;;;;;;;6298965;22;20011;-85
2022/09/26 14:02:01;;;;;;;2.85;2.65;;;;;;;;;;6329816;22;20025;-83
2022/09/26 14:04:34;;;;;;;3.08;2.72;;;;;;;;;;6329751;22;20026;-84
2022/09/26 14:10:00;;;;;;;2.75;2.53;;;;;;;;;;6331055;22;20443;-81
2022/09/26 14:12:45;;;;;;;6.15;3.05;;;;;;;;;;6329135;22;20056;-82
2022/09/26 14:15:16;;;;;;;3.28;2.95;;;;;;;;;;6330869;22;20018;-83
2022/09/26 14:17:43;;;;;;;3.13;2.63;;;;;;;;;;6301973;22;20067;-82
2022/09/26 14:20:16;;;;;;;3.05;2.78;;;;;;;;;;6304222;22;20014;-83
2022/09/26 14:22:50;;;;;;;4.57;2.75;;;;;;;;;;6332188;22;20025;-83
2022/09/26 14:25:35;;;;;;;3.67;2.80;;;;;;;;;;6277444;22;20052;-82
2022/09/26 14:28:19;;;;;;;4.57;2.72;;;;;;;;;;6331733;22;20026;-84
2022/09/26 14:31:04;;;;;;;3.25;2.83;;;;;;;;;;6330256;22;20022;-83
2022/09/26 14:33:31;;;;;;;3.13;2.83;;;;;;;;;;6331135;22;20015;-85
2022/09/26 14:36:17;;;;;;;3.20;2.95;;;;;;;;;;6331386;22;20015;-84
2022/09/26 14:38:45;;;;;;;3.78;3.35;;;;;;;;;;6332265;22;20485;-84
2022/09/26 14:41:19;;;;;;;3.58;3.28;;;;;;;;;;6331616;22;20015;-85
2022/09/26 14:43:58;;;;;;;3.88;2.75;;;;;;;;;;6329939;22;20022;-84
2022/09/26 14:46:25;;;;;;;4.43;3.35;;;;;;;;;;6303067;22;20019;-83
2022/09/26 14:48:56;;;;;;;3.72;2.72;;;;;;;;;;6328478;22;20042;-84
2022/09/26 14:51:32;;;;;;;6.35;2.97;;;;;;;;;;6330671;22;20015;-84
2022/09/26 14:54:03;;;;;;;3.67;2.67;;;;;;;;;;6301402;22;20026;-85
2022/09/26 14:56:32;;;;;;;2.80;2.40;;;;;;;;;;6330615;22;20011;-84
2022/09/26 14:59:19;;;;;;;4.28;2.40;;;;;;;;;;6330583;22;20019;-85
2022/09/26 15:01:45;;;;;;;4.07;2.20;;;;;;;;;;6300480;22;20080;-84
2022/09/26 15:07:25;;;;;;;2.13;1.90;;;;;;;;;;6302811;22;20744;-85
2022/09/26 15:09:59;;;;;;;1.50;1.33;;;;;;;;;;6302736;22;20018;-85
2022/09/26 15:12:28;;;;;;;3.08;1.88;;;;;;;;;;6335799;22;20023;-84
2022/09/26 15:15:06;;;;;;;3.25;2.15;;;;;;;;;;6280052;22;20010;-84
2022/09/26 15:17:34;;;;;;;5.47;2.20;;;;;;;;;;6305361;22;20018;-84
2022/09/26 15:20:14;;;;;;;1.70;1.60;;;;;;;;;;6277369;22;20425;-84
2022/09/26 15:22:58;;;;;;;5.03;2.20;;;;;;;;;;6308868;22;20030;-84
2022/09/26 15:25:30;;;;;;;3.03;1.95;;;;;;;;;;6330430;22;20469;-85
2022/09/26 15:27:56;;;;;;;8.20;2.53;;;;;;;;;;6303979;22;20027;-85
2022/09/26 15:30:25;;;;;;;3.33;2.30;;;;;;;;;;6332050;22;20023;-85
2022/09/26 15:32:58;;;;;;;4.25;2.58;;;;;;;;;;6331650;22;20076;-85
2022/09/26 15:35:26;;;;;;;3.97;2.63;;;;;;;;;;6333628;22;20019;-84
2022/09/26 15:37:56;;;;;;;5.63;2.80;;;;;;;;;;6335526;22;20022;-85
2022/09/26 15:40:23;;;;;;;4.47;3.40;;;;;;;;;;6339183;22;20027;-85
2022/09/26 15:43:12;;;;;;;6.15;2.42;;;;;;;;;;6342458;22;20159;-87
2022/09/26 15:46:00;;;;;;;4.50;3.10;;;;;;;;;;6311903;22;20014;-86
2022/09/26 15:48:28;;;;;;;4.75;3.03;;;;;;;;;;6333605;22;20014;-85
2022/09/26 15:50:54;;;;;;;3.83;3.10;;;;;;;;;;6330823;22;20355;-84
2022/09/26 15:53:20;;;;;;;4.43;3.30;;;;;;;;;;6297120;22;20485;-85
2022/09/26 15:55:51;;;;;;;4.32;3.65;;;;;;;;;;6329482;22;20019;-84
2022/09/26 15:58:39;;;;;;;3.75;3.35;;;;;;;;;;6303784;22;20023;-85
2022/09/26 16:01:07;;;;;;;8.05;4.20;;;;;;;;;;6277463;22;20022;-85
2022/09/26 16:03:38;;;;;;;6.45;4.03;;;;;;;;;;6278178;22;20021;-85
2022/09/26 16:06:17;;;;;;;4.45;4.05;;;;;;;;;;6293235;22;20109;-84
2022/09/26 16:08:44;;;;;;;5.20;4.45;;;;;;;;;;6276828;22;20890;-84
2022/09/26 16:21:44;;;;;;;10.35;6.45;;;;;;;;;;6315188;22;20029;-84
2022/09/26 16:28:08;;;;;;;11.95;7.05;;;;;;;;;;6301458;22;20064;-84
2022/09/26 16:37:31;;;;;;;13.30;5.57;;;;;;;;;;6301046;22;20078;-85
2022/09/26 16:39:58;;;;;;;8.43;4.15;;;;;;;;;;6298799;22;20104;-85
2022/09/26 16:42:32;;;;;;;12.98;5.65;;;;;;;;;;6271236;22;20395;-85
2022/09/26 16:44:58;;;;;;;10.23;4.38;;;;;;;;;;6270594;22;20030;-85
2022/09/26 16:47:44;;;;;;;13.50;5.43;;;;;;;;;;6245540;22;20057;-85
2022/09/26 16:50:18;;;;;;;15.68;5.22;;;;;;;;;;6270343;22;20027;-85
2022/09/26 16:53:13;;;;;;;15.38;5.47;;;;;;;;;;6270376;22;20088;-84
2022/09/26 16:55:39;;;;;;;;;;;;;;;;;;6271500;22;20019;-84
2022/09/26 16:58:05;;;;;;;13.23;5.03;;;;;;;;;;6269183;22;19993;-84
2022/09/26 17:03:21;;;;;;;15.52;6.18;;;;;;;;;;6335226;22;20098;-85
2022/09/26 17:06:21;;;;;;;13.32;5.45;;;;;;;;;;6282241;22;20037;-84